Grez-Doiceau, Belgium
Current Conditions -  °F | °C
As of 6:25 AM on Saturday 01 Nov 2014 (Local Time) from EBBE Reporting Station
Scattered Clouds Scattered Clouds  
Wind Chill: 57°   Ceiling: Unl
Heat Index: 57°   Visibility: 6mi
Dew Point: 48°   Wind: 9mph
Humidity: 72%   Direction: 200°SSW
Pressure: 30.09"   Gusts: NA
Location:  50.74°N, 4.7°E
Report Text: EBBE 010525Z AUTO 20008KT 9999 SCT140/// 14/09 Q1019 BLU
Loading
Personal Weather Stations






























Interactive Weather Map
Tropical Storm Tracking
New forecast layout! Learn more

10-Day Weather Forecast

Advertisements
Track Severe Weather on mobile